Time;durP1;ratioP1;P1;durP2;ratioP2;P2;SDS_P1;SDS_P2;PMS_P1;PMS_P2;Temp;Humidity;BMP_temperature;BMP_pressure;BME280_temperature;BME280_humidity;BME280_pressure;Samples;Min_cycle;Max_cycle;Signal;HPM_P1;HPM_P2
2022/10/03 00:00:01;;;;;;;4.97;2.80;;;;;;;;;;5028839;28;20323;-62
2022/10/03 00:02:43;;;;;;;4.80;2.37;;;;;;;;;;5029329;28;20204;-62
2022/10/03 00:05:19;;;;;;;4.63;2.30;;;;;;;;;;4997259;28;20216;-62
2022/10/03 00:07:58;;;;;;;6.87;2.47;;;;;;;;;;5028409;28;20239;-62
2022/10/03 00:10:31;;;;;;;4.17;2.20;;;;;;;;;;5030122;28;20216;-62
2022/10/03 00:13:04;;;;;;;5.90;2.13;;;;;;;;;;5028021;28;20220;-62
2022/10/03 00:15:55;;;;;;;2.97;2.63;;;;;;;;;;5025989;28;20232;-62
2022/10/03 00:18:30;;;;;;;2.57;2.37;;;;;;;;;;5022280;28;20204;-62
2022/10/03 00:21:09;;;;;;;3.63;2.60;;;;;;;;;;5029784;28;20234;-62
2022/10/03 00:23:39;;;;;;;4.20;2.97;;;;;;;;;;5029512;28;20239;-61
2022/10/03 00:28:56;;;;;;;3.60;3.00;;;;;;;;;;5028785;28;20254;-61
2022/10/03 00:31:25;;;;;;;3.50;2.90;;;;;;;;;;5029309;28;20204;-61
2022/10/03 00:34:03;;;;;;;2.77;2.50;;;;;;;;;;5029183;28;20211;-61
2022/10/03 00:36:38;;;;;;;4.20;3.10;;;;;;;;;;5029161;28;20208;-61
2022/10/03 00:39:12;;;;;;;7.93;2.80;;;;;;;;;;5029135;28;20211;-62
2022/10/03 00:42:00;;;;;;;3.57;2.60;;;;;;;;;;5029547;28;20204;-62
2022/10/03 00:44:39;;;;;;;7.57;2.67;;;;;;;;;;4989806;28;20247;-62
2022/10/03 00:47:11;;;;;;;2.33;2.13;;;;;;;;;;5025204;28;20910;-62
2022/10/03 00:49:57;;;;;;;3.60;2.03;;;;;;;;;;5029298;28;20223;-62
2022/10/03 00:52:39;;;;;;;2.50;2.30;;;;;;;;;;5029550;28;20200;-62
2022/10/03 00:55:13;;;;;;;2.03;1.93;;;;;;;;;;5029854;28;20208;-62
2022/10/03 00:57:52;;;;;;;3.33;2.53;;;;;;;;;;5029323;28;20212;-62
2022/10/03 01:00:23;;;;;;;3.10;2.80;;;;;;;;;;5009507;28;20225;-62
2022/10/03 01:03:00;;;;;;;3.17;2.90;;;;;;;;;;5015229;28;20275;-61
2022/10/03 01:05:33;;;;;;;2.97;2.73;;;;;;;;;;5029406;28;20212;-61
2022/10/03 01:08:18;;;;;;;3.03;2.77;;;;;;;;;;5029195;28;20204;-61
2022/10/03 01:10:52;;;;;;;2.97;2.60;;;;;;;;;;5029048;28;20652;-62
2022/10/03 01:13:28;;;;;;;2.73;2.47;;;;;;;;;;5028568;28;20201;-61
2022/10/03 01:16:01;;;;;;;3.80;2.00;;;;;;;;;;5029351;28;20219;-62
2022/10/03 01:18:34;;;;;;;4.03;2.83;;;;;;;;;;5029004;28;20200;-62
2022/10/03 01:21:06;;;;;;;2.70;2.50;;;;;;;;;;5029195;28;20606;-62
2022/10/03 01:23:48;;;;;;;2.33;2.13;;;;;;;;;;5028900;28;20205;-62
2022/10/03 01:26:22;;;;;;;2.80;2.57;;;;;;;;;;5024244;28;20241;-62
2022/10/03 01:31:41;;;;;;;4.90;2.60;;;;;;;;;;5028770;28;20365;-62
2022/10/03 01:34:10;;;;;;;2.33;2.23;;;;;;;;;;5028625;28;20208;-62
2022/10/03 01:36:40;;;;;;;2.87;2.43;;;;;;;;;;5029455;28;20208;-62
2022/10/03 01:39:12;;;;;;;2.53;1.80;;;;;;;;;;5028648;28;20208;-62
2022/10/03 01:41:47;;;;;;;3.23;2.63;;;;;;;;;;5029206;28;20316;-61
2022/10/03 01:44:23;;;;;;;2.27;2.10;;;;;;;;;;5025222;28;20219;-62
2022/10/03 01:46:53;;;;;;;2.13;2.03;;;;;;;;;;5029140;28;20204;-62
2022/10/03 01:49:24;;;;;;;1.87;1.70;;;;;;;;;;5028980;28;20228;-62
2022/10/03 01:51:55;;;;;;;3.53;1.87;;;;;;;;;;5028258;28;20215;-62
2022/10/03 01:54:29;;;;;;;2.93;1.73;;;;;;;;;;5027923;28;20212;-62
2022/10/03 01:56:57;;;;;;;2.40;2.20;;;;;;;;;;5019335;28;20215;-62
2022/10/03 01:59:34;;;;;;;3.10;2.87;;;;;;;;;;5028294;28;20778;-62
2022/10/03 02:02:03;;;;;;;3.67;2.07;;;;;;;;;;5028243;28;20212;-62
2022/10/03 02:04:36;;;;;;;2.43;1.83;;;;;;;;;;5028582;28;20231;-62
2022/10/03 02:07:08;;;;;;;2.30;2.10;;;;;;;;;;5026101;28;20213;-62
2022/10/03 02:09:37;;;;;;;4.67;2.03;;;;;;;;;;5028090;28;20200;-62
2022/10/03 02:12:08;;;;;;;2.33;2.13;;;;;;;;;;5028188;28;20212;-62
2022/10/03 02:14:41;;;;;;;2.20;2.10;;;;;;;;;;5028406;28;20671;-62
2022/10/03 02:17:13;;;;;;;1.93;1.80;;;;;;;;;;5027409;28;20215;-62
2022/10/03 02:19:42;;;;;;;3.90;2.40;;;;;;;;;;5028406;28;20212;-62
2022/10/03 02:22:14;;;;;;;2.17;2.07;;;;;;;;;;5028186;28;20231;-62
2022/10/03 02:24:44;;;;;;;2.20;2.00;;;;;;;;;;5024894;28;20251;-62
2022/10/03 02:27:26;;;;;;;2.40;2.30;;;;;;;;;;5027637;28;20220;-62
2022/10/03 02:30:03;;;;;;;1.67;1.57;;;;;;;;;;5028006;28;20295;-62
2022/10/03 02:32:46;;;;;;;1.87;1.77;;;;;;;;;;5028323;28;20258;-62
2022/10/03 02:35:29;;;;;;;6.30;2.23;;;;;;;;;;5027250;28;20682;-62
2022/10/03 02:38:06;;;;;;;2.07;1.97;;;;;;;;;;5027665;28;20219;-62
2022/10/03 02:40:41;;;;;;;2.03;1.93;;;;;;;;;;5028074;28;20220;-62
2022/10/03 02:43:31;;;;;;;4.10;1.97;;;;;;;;;;5028357;28;20219;-62
2022/10/03 02:46:20;;;;;;;3.17;2.07;;;;;;;;;;5028304;28;20201;-62
2022/10/03 02:49:01;;;;;;;3.47;1.83;;;;;;;;;;5027019;28;20641;-62
2022/10/03 02:51:44;;;;;;;3.80;2.00;;;;;;;;;;5028412;28;20204;-62
2022/10/03 02:54:27;;;;;;;2.10;2.00;;;;;;;;;;5026517;28;20236;-60
2022/10/03 02:57:16;;;;;;;5.10;2.30;;;;;;;;;;5027327;28;20227;-60
2022/10/03 03:00:03;;;;;;;2.23;2.03;;;;;;;;;;5027846;28;20209;-60
2022/10/03 03:02:48;;;;;;;7.50;2.23;;;;;;;;;;5027645;28;20208;-60
2022/10/03 03:05:30;;;;;;;2.07;1.93;;;;;;;;;;5027902;28;20226;-60
2022/10/03 03:08:16;;;;;;;2.23;2.13;;;;;;;;;;4994638;28;20254;-60
2022/10/03 03:11:01;;;;;;;2.30;2.17;;;;;;;;;;5027439;28;20204;-60
2022/10/03 03:13:46;;;;;;;2.10;2.00;;;;;;;;;;5017357;28;20204;-60
2022/10/03 03:16:47;;;;;;;3.53;2.43;;;;;;;;;;5027248;28;20215;-60
2022/10/03 03:19:27;;;;;;;2.37;1.87;;;;;;;;;;4964869;28;20233;-61
2022/10/03 03:22:01;;;;;;;2.33;2.13;;;;;;;;;;4964454;28;20245;-60
2022/10/03 03:24:41;;;;;;;1.90;1.80;;;;;;;;;;5000125;28;20208;-60
2022/10/03 03:27:23;;;;;;;1.73;1.67;;;;;;;;;;5024128;28;20232;-60
2022/10/03 03:29:56;;;;;;;2.93;1.90;;;;;;;;;;5028184;28;20208;-60
2022/10/03 03:32:41;;;;;;;2.27;2.10;;;;;;;;;;5028556;28;20211;-60
2022/10/03 03:35:16;;;;;;;5.70;2.37;;;;;;;;;;5028304;28;20204;-60
2022/10/03 03:37:47;;;;;;;3.77;2.23;;;;;;;;;;5029303;28;20207;-60
2022/10/03 03:40:28;;;;;;;1.90;1.80;;;;;;;;;;5030157;28;20228;-60
2022/10/03 03:43:02;;;;;;;2.13;1.93;;;;;;;;;;5027697;28;20208;-60
2022/10/03 03:45:37;;;;;;;1.67;1.63;;;;;;;;;;5028995;28;20609;-61
2022/10/03 03:48:12;;;;;;;2.10;2.00;;;;;;;;;;5028229;28;20724;-60
2022/10/03 03:50:46;;;;;;;1.50;1.50;;;;;;;;;;5029167;28;20196;-60
2022/10/03 03:53:26;;;;;;;2.27;2.00;;;;;;;;;;5026032;28;20265;-60
2022/10/03 03:56:02;;;;;;;17.47;7.70;;;;;;;;;;5029290;28;20204;-61
2022/10/03 03:58:34;;;;;;;12.60;5.70;;;;;;;;;;5028560;28;20204;-60
2022/10/03 04:01:08;;;;;;;7.73;4.20;;;;;;;;;;5028267;28;20236;-60
2022/10/03 04:03:42;;;;;;;8.87;4.57;;;;;;;;;;5027339;28;20223;-60
2022/10/03 04:06:18;;;;;;;8.00;4.00;;;;;;;;;;5028146;28;20208;-60
2022/10/03 04:09:02;;;;;;;7.97;4.90;;;;;;;;;;5027818;28;20201;-60
2022/10/03 04:11:37;;;;;;;7.47;4.83;;;;;;;;;;5028415;28;20200;-60
2022/10/03 04:14:28;;;;;;;7.50;3.43;;;;;;;;;;5028350;28;20304;-60
2022/10/03 04:19:55;;;;;;;3.33;3.13;;;;;;;;;;5027842;28;20207;-60
2022/10/03 04:22:29;;;;;;;3.23;2.93;;;;;;;;;;5029427;28;20314;-60
2022/10/03 04:25:03;;;;;;;4.53;3.17;;;;;;;;;;5029806;28;20208;-60
2022/10/03 04:27:42;;;;;;;3.27;2.97;;;;;;;;;;5027578;28;20243;-60
2022/10/03 04:30:13;;;;;;;2.30;2.17;;;;;;;;;;5028791;28;20211;-60
2022/10/03 04:32:46;;;;;;;2.40;2.30;;;;;;;;;;5027018;28;20220;-60
2022/10/03 04:35:24;;;;;;;3.07;2.17;;;;;;;;;;5025188;28;20651;-61
2022/10/03 04:37:57;;;;;;;4.23;3.30;;;;;;;;;;5027525;28;20204;-61
2022/10/03 04:40:29;;;;;;;6.47;2.30;;;;;;;;;;5026623;28;20224;-61
2022/10/03 04:43:12;;;;;;;5.10;2.30;;;;;;;;;;5025799;28;20238;-61
2022/10/03 04:45:46;;;;;;;2.33;2.23;;;;;;;;;;5026736;28;20605;-60
2022/10/03 04:48:16;;;;;;;3.97;2.40;;;;;;;;;;5027107;28;20200;-60
2022/10/03 04:50:44;;;;;;;3.23;2.40;;;;;;;;;;5027955;28;20287;-60
2022/10/03 04:53:22;;;;;;;4.00;1.97;;;;;;;;;;5027566;28;20205;-60
2022/10/03 04:55:52;;;;;;;2.80;2.53;;;;;;;;;;5027802;28;20212;-60
2022/10/03 04:58:26;;;;;;;3.87;2.40;;;;;;;;;;5027575;28;20201;-61
2022/10/03 05:00:57;;;;;;;2.33;2.00;;;;;;;;;;5027281;28;20604;-61
2022/10/03 05:03:33;;;;;;;2.93;2.67;;;;;;;;;;5028202;28;20227;-61
2022/10/03 05:06:01;;;;;;;2.30;2.20;;;;;;;;;;5026924;28;20222;-61
2022/10/03 05:08:38;;;;;;;2.80;2.37;;;;;;;;;;5027898;28;20211;-61
2022/10/03 05:11:11;;;;;;;2.93;2.57;;;;;;;;;;5026487;28;20847;-61
2022/10/03 05:13:46;;;;;;;5.80;2.43;;;;;;;;;;5027682;28;20192;-61
2022/10/03 05:16:19;;;;;;;4.43;3.17;;;;;;;;;;5026498;28;20292;-61
2022/10/03 05:18:48;;;;;;;3.20;2.30;;;;;;;;;;5027871;28;20204;-61
2022/10/03 05:21:16;;;;;;;4.10;2.47;;;;;;;;;;5027818;28;20228;-60
2022/10/03 05:23:51;;;;;;;2.97;2.77;;;;;;;;;;5027833;28;20215;-61
2022/10/03 05:26:23;;;;;;;3.30;3.00;;;;;;;;;;5027413;28;20249;-61
2022/10/03 05:28:55;;;;;;;2.73;2.53;;;;;;;;;;5027868;28;20201;-60
2022/10/03 05:31:36;;;;;;;3.03;2.40;;;;;;;;;;5026490;28;20197;-61
2022/10/03 05:34:10;;;;;;;2.80;2.57;;;;;;;;;;5027353;28;20216;-60
2022/10/03 05:36:46;;;;;;;5.77;3.13;;;;;;;;;;5026735;28;20239;-60
2022/10/03 05:39:34;;;;;;;2.70;2.50;;;;;;;;;;5027655;28;20231;-60
2022/10/03 05:42:12;;;;;;;3.07;2.87;;;;;;;;;;5027478;28;20228;-61
2022/10/03 05:44:44;;;;;;;2.87;2.67;;;;;;;;;;5026699;28;20584;-62
2022/10/03 05:50:02;;;;;;;2.77;2.57;;;;;;;;;;5026292;28;20200;-61
2022/10/03 05:52:46;;;;;;;3.17;2.97;;;;;;;;;;5026361;28;20227;-61
2022/10/03 05:55:34;;;;;;;4.00;2.83;;;;;;;;;;5026862;28;20679;-61
2022/10/03 05:58:13;;;;;;;3.90;3.00;;;;;;;;;;5022373;28;20221;-61
2022/10/03 06:00:52;;;;;;;2.87;2.67;;;;;;;;;;5026530;28;20721;-61
2022/10/03 06:03:32;;;;;;;3.77;3.33;;;;;;;;;;5026072;28;20220;-61
2022/10/03 06:06:13;;;;;;;4.20;3.80;;;;;;;;;;5026606;28;20220;-61
2022/10/03 06:08:59;;;;;;;4.17;3.73;;;;;;;;;;5025696;28;20212;-61
2022/10/03 06:11:44;;;;;;;3.67;3.33;;;;;;;;;;5026682;28;20570;-61
2022/10/03 06:14:37;;;;;;;5.63;3.83;;;;;;;;;;5026676;28;20794;-62
2022/10/03 06:17:19;;;;;;;6.67;4.07;;;;;;;;;;5012422;28;20208;-61
2022/10/03 06:19:50;;;;;;;6.43;3.90;;;;;;;;;;5026682;28;20215;-61
2022/10/03 06:22:44;;;;;;;5.33;4.07;;;;;;;;;;5026398;28;20228;-62
2022/10/03 06:25:27;;;;;;;4.60;4.20;;;;;;;;;;5026426;28;20207;-61
2022/10/03 06:28:17;;;;;;;8.30;4.30;;;;;;;;;;5025812;28;20677;-61
2022/10/03 06:30:55;;;;;;;5.63;4.23;;;;;;;;;;5021462;28;20204;-62
2022/10/03 06:33:50;;;;;;;7.53;5.27;;;;;;;;;;5026605;28;20204;-62
2022/10/03 06:36:31;;;;;;;9.40;6.23;;;;;;;;;;5025899;28;20205;-61
2022/10/03 06:39:17;;;;;;;8.97;6.53;;;;;;;;;;5027495;28;20208;-61
2022/10/03 06:42:17;;;;;;;11.73;6.97;;;;;;;;;;5027246;28;20232;-61
2022/10/03 06:44:56;;;;;;;9.13;5.67;;;;;;;;;;5026489;28;20227;-60
2022/10/03 06:47:32;;;;;;;10.57;5.27;;;;;;;;;;5016822;28;20257;-60
2022/10/03 06:50:15;;;;;;;8.07;5.27;;;;;;;;;;5026175;28;20269;-61
2022/10/03 06:52:57;;;;;;;7.13;4.63;;;;;;;;;;5014642;28;20285;-61
2022/10/03 06:55:42;;;;;;;7.33;4.73;;;;;;;;;;4992622;28;20200;-60
2022/10/03 06:58:33;;;;;;;10.10;5.07;;;;;;;;;;5022872;28;20575;-61
2022/10/03 07:01:15;;;;;;;6.90;4.53;;;;;;;;;;5026068;28;20197;-62
2022/10/03 07:04:00;;;;;;;6.03;4.47;;;;;;;;;;5030805;28;20617;-61
2022/10/03 07:06:38;;;;;;;7.83;4.90;;;;;;;;;;5028739;28;20208;-61
2022/10/03 07:09:24;;;;;;;7.23;5.00;;;;;;;;;;5030599;28;20204;-61
2022/10/03 07:12:05;;;;;;;7.67;5.13;;;;;;;;;;5030040;28;20879;-61
2022/10/03 07:14:45;;;;;;;13.77;5.43;;;;;;;;;;5029204;28;20261;-62
2022/10/03 07:17:29;;;;;;;9.93;5.00;;;;;;;;;;5028859;28;20620;-62
2022/10/03 07:20:06;;;;;;;9.47;4.57;;;;;;;;;;5030355;28;20208;-61
2022/10/03 07:22:48;;;;;;;13.53;5.50;;;;;;;;;;5028980;28;20228;-62
2022/10/03 07:25:25;;;;;;;14.77;5.57;;;;;;;;;;5026859;28;20204;-60
2022/10/03 07:28:02;;;;;;;8.23;5.50;;;;;;;;;;5029755;28;20208;-63
2022/10/03 07:30:31;;;;;;;7.97;5.20;;;;;;;;;;5029671;28;20219;-61
2022/10/03 07:33:17;;;;;;;14.77;5.33;;;;;;;;;;5028898;28;20205;-60
2022/10/03 07:39:17;;;;;;;6.00;5.40;;;;;;;;;;5029295;28;20281;-60
2022/10/03 07:42:11;;;;;;;10.30;5.60;;;;;;;;;;5013081;28;20761;-62
2022/10/03 07:44:51;;;;;;;6.67;4.77;;;;;;;;;;5004474;28;20286;-62
2022/10/03 07:47:34;;;;;;;7.70;5.57;;;;;;;;;;5029322;28;20204;-62
2022/10/03 07:50:07;;;;;;;8.27;5.33;;;;;;;;;;5028896;28;20200;-60
2022/10/03 07:52:44;;;;;;;9.03;6.00;;;;;;;;;;5028737;28;20200;-60
2022/10/03 07:55:35;;;;;;;10.03;4.33;;;;;;;;;;5028996;28;20291;-60
2022/10/03 07:58:12;;;;;;;9.83;4.17;;;;;;;;;;5014182;28;20204;-60
2022/10/03 08:00:46;;;;;;;10.50;4.87;;;;;;;;;;5027392;28;20240;-60
2022/10/03 08:03:28;;;;;;;7.30;4.73;;;;;;;;;;5028426;28;20321;-60
2022/10/03 08:06:07;;;;;;;5.77;4.07;;;;;;;;;;5028881;28;20208;-60
2022/10/03 08:08:58;;;;;;;10.20;4.53;;;;;;;;;;5028257;28;20215;-60
2022/10/03 08:11:43;;;;;;;5.37;4.33;;;;;;;;;;5013820;28;20262;-60
2022/10/03 08:17:39;;;;;;;5.43;3.57;;;;;;;;;;4996512;28;20293;-59
2022/10/03 08:20:23;;;;;;;6.43;3.43;;;;;;;;;;5028640;28;20326;-60
2022/10/03 08:22:58;;;;;;;4.80;3.43;;;;;;;;;;5027785;28;20255;-60
2022/10/03 08:25:30;;;;;;;3.33;3.03;;;;;;;;;;5027962;28;20200;-60
2022/10/03 08:28:09;;;;;;;9.57;3.93;;;;;;;;;;5027302;28;20204;-61
2022/10/03 08:30:44;;;;;;;5.17;3.43;;;;;;;;;;5028081;28;20204;-61
2022/10/03 08:33:23;;;;;;;5.70;3.50;;;;;;;;;;5028253;28;20753;-61
2022/10/03 08:36:23;;;;;;;7.43;3.70;;;;;;;;;;5028313;28;20212;-60
2022/10/03 08:38:58;;;;;;;5.30;3.73;;;;;;;;;;5027156;28;20208;-59
2022/10/03 08:41:47;;;;;;;6.77;3.40;;;;;;;;;;5024673;28;20592;-63
2022/10/03 08:44:34;;;;;;;6.83;3.43;;;;;;;;;;5027181;28;20235;-61
2022/10/03 08:47:25;;;;;;;10.55;3.72;;;;;;;;;;5028286;28;20215;-59
2022/10/03 08:50:10;;;;;;;77.20;22.60;;;;;;;;;;5028695;28;20212;-59
2022/10/03 08:52:47;;;;;;;128.60;30.10;;;;;;;;;;5028699;28;20207;-59
2022/10/03 08:55:29;;;;;;;141.60;43.17;;;;;;;;;;5028603;28;20232;-61
2022/10/03 08:58:09;;;;;;;8.27;4.95;;;;;;;;;;5028311;28;20222;-59
2022/10/03 09:00:45;;;;;;;9.63;4.25;;;;;;;;;;5030010;28;20227;-59
2022/10/03 09:03:30;;;;;;;17.55;5.93;;;;;;;;;;5030305;28;20322;-59
2022/10/03 09:06:28;;;;;;;6.70;3.70;;;;;;;;;;5029709;28;20208;-58
2022/10/03 09:09:02;;;;;;;96.90;34.00;;;;;;;;;;5024278;28;20223;-58
2022/10/03 09:11:46;;;;;;;33.08;17.85;;;;;;;;;;5030082;28;20216;-60
2022/10/03 09:14:31;;;;;;;14.23;7.95;;;;;;;;;;5027765;28;20212;-60
2022/10/03 09:17:13;;;;;;;8.27;3.92;;;;;;;;;;5028204;28;20212;-57
2022/10/03 09:20:01;;;;;;;3.17;2.30;;;;;;;;;;5016291;28;20224;-60
2022/10/03 09:22:44;;;;;;;2.58;2.38;;;;;;;;;;5029047;28;20235;-58
2022/10/03 09:25:21;;;;;;;4.78;2.50;;;;;;;;;;5022600;28;20602;-61
2022/10/03 09:28:07;;;;;;;2.40;2.28;;;;;;;;;;5029373;28;20229;-59
2022/10/03 09:30:56;;;;;;;2.75;2.40;;;;;;;;;;5028601;28;20283;-58
2022/10/03 09:33:44;;;;;;;2.67;2.20;;;;;;;;;;5028424;28;20270;-59
2022/10/03 09:36:41;;;;;;;2.55;2.40;;;;;;;;;;5029349;28;20205;-59
2022/10/03 09:39:23;;;;;;;2.13;2.00;;;;;;;;;;4967220;28;20218;-60
2022/10/03 09:42:05;;;;;;;3.75;1.95;;;;;;;;;;5018510;28;20211;-61
2022/10/03 09:44:49;;;;;;;5.53;2.13;;;;;;;;;;5029177;28;20785;-60
2022/10/03 09:47:31;;;;;;;3.00;2.10;;;;;;;;;;5029081;28;20204;-60
2022/10/03 09:50:28;;;;;;;2.38;1.70;;;;;;;;;;5027577;28;20223;-60
2022/10/03 09:53:16;;;;;;;2.70;2.20;;;;;;;;;;5028754;28;20207;-61
2022/10/03 09:55:51;;;;;;;1.95;1.85;;;;;;;;;;5029345;28;20240;-58
2022/10/03 09:58:46;;;;;;;5.38;2.65;;;;;;;;;;5029121;28;20377;-60
2022/10/03 10:01:21;;;;;;;3.92;2.03;;;;;;;;;;5028481;28;20216;-59
2022/10/03 10:04:12;;;;;;;2.67;1.80;;;;;;;;;;5016784;28;20224;-58
2022/10/03 10:06:51;;;;;;;1.33;1.33;;;;;;;;;;4990834;28;20213;-60
2022/10/03 10:09:39;;;;;;;3.38;1.90;;;;;;;;;;5028109;28;20653;-58
2022/10/03 10:12:24;;;;;;;3.42;1.80;;;;;;;;;;5027973;28;20189;-59
2022/10/03 10:15:22;;;;;;;2.65;1.63;;;;;;;;;;5027622;28;20269;-59
2022/10/03 10:18:23;;;;;;;2.55;2.20;;;;;;;;;;5029223;28;20207;-57
2022/10/03 10:21:08;;;;;;;2.97;1.85;;;;;;;;;;5025026;28;20205;-56
2022/10/03 10:23:42;;;;;;;2.28;2.05;;;;;;;;;;5018076;28;20806;-58
2022/10/03 10:26:38;;;;;;;1.52;1.45;;;;;;;;;;5026727;28;20239;-57
2022/10/03 10:29:16;;;;;;;2.03;1.10;;;;;;;;;;5017593;28;20224;-57
2022/10/03 10:35:25;;;;;;;1.88;1.00;;;;;;;;;;5015908;28;20301;-57
2022/10/03 10:38:24;;;;;;;1.55;1.45;;;;;;;;;;5028521;28;20334;-59
2022/10/03 10:41:19;;;;;;;1.30;1.20;;;;;;;;;;5023460;28;20296;-59
2022/10/03 10:44:05;;;;;;;1.45;1.38;;;;;;;;;;5023498;28;20236;-57
2022/10/03 10:46:53;;;;;;;1.98;1.58;;;;;;;;;;5028706;28;20208;-57
2022/10/03 10:49:50;;;;;;;1.30;1.30;;;;;;;;;;5007156;28;20204;-60
2022/10/03 10:52:38;;;;;;;3.63;1.40;;;;;;;;;;5023960;28;20205;-60
2022/10/03 10:55:24;;;;;;;1.00;1.00;;;;;;;;;;5023761;28;20227;-57
2022/10/03 10:58:08;;;;;;;2.85;1.25;;;;;;;;;;5029088;28;20212;-57
2022/10/03 11:00:54;;;;;;;1.60;1.50;;;;;;;;;;5017474;28;20223;-57
2022/10/03 11:03:40;;;;;;;1.30;1.30;;;;;;;;;;5027909;28;20247;-57
2022/10/03 11:06:18;;;;;;;2.15;1.40;;;;;;;;;;5028146;28;20204;-59
2022/10/03 11:08:51;;;;;;;1.77;1.50;;;;;;;;;;5019747;28;20215;-58
2022/10/03 11:11:34;;;;;;;1.90;1.70;;;;;;;;;;5027607;28;20208;-59
2022/10/03 11:14:23;;;;;;;2.88;1.90;;;;;;;;;;5024291;28;20274;-60
2022/10/03 11:17:09;;;;;;;2.35;1.77;;;;;;;;;;5024538;28;20662;-60
2022/10/03 11:19:49;;;;;;;1.67;1.58;;;;;;;;;;5027644;28;20200;-60
2022/10/03 11:22:37;;;;;;;1.60;1.50;;;;;;;;;;5023221;28;20643;-60
2022/10/03 11:25:22;;;;;;;1.98;1.83;;;;;;;;;;5023200;28;20207;-60
2022/10/03 11:28:07;;;;;;;2.40;2.20;;;;;;;;;;5020235;28;20209;-60
2022/10/03 11:30:57;;;;;;;1.77;1.67;;;;;;;;;;5018289;28;20209;-60
2022/10/03 11:33:42;;;;;;;2.63;2.15;;;;;;;;;;5008918;28;20208;-61
2022/10/03 11:36:28;;;;;;;1.58;1.35;;;;;;;;;;5019747;28;20812;-60
2022/10/03 11:38:59;;;;;;;1.45;1.45;;;;;;;;;;5020209;28;20216;-59
2022/10/03 11:41:31;;;;;;;2.33;1.58;;;;;;;;;;5025250;28;20216;-59
2022/10/03 11:44:06;;;;;;;2.85;1.60;;;;;;;;;;5027710;28;20233;-60
2022/10/03 11:46:46;;;;;;;2.28;1.67;;;;;;;;;;5027739;28;20665;-60
2022/10/03 11:49:21;;;;;;;1.83;1.25;;;;;;;;;;5029067;28;20208;-60
2022/10/03 11:51:54;;;;;;;3.60;1.55;;;;;;;;;;5030246;28;20662;-61
2022/10/03 11:54:24;;;;;;;1.83;1.73;;;;;;;;;;5030540;28;20558;-61
2022/10/03 11:56:55;;;;;;;1.85;1.75;;;;;;;;;;5021723;28;20220;-61
2022/10/03 11:59:33;;;;;;;3.05;1.77;;;;;;;;;;5028013;28;20689;-61
2022/10/03 12:02:13;;;;;;;2.03;1.85;;;;;;;;;;5030734;28;20220;-60
2022/10/03 12:04:47;;;;;;;1.83;1.77;;;;;;;;;;5030114;28;20239;-62
2022/10/03 12:10:09;;;;;;;1.92;1.83;;;;;;;;;;5030957;28;20346;-65
2022/10/03 12:12:41;;;;;;;4.53;1.92;;;;;;;;;;5031138;28;20205;-62
2022/10/03 12:15:17;;;;;;;4.53;2.10;;;;;;;;;;5031210;28;20776;-61
2022/10/03 12:17:48;;;;;;;1.70;1.60;;;;;;;;;;5030429;28;20211;-60
2022/10/03 12:20:19;;;;;;;2.33;1.73;;;;;;;;;;5030642;28;20215;-61
2022/10/03 12:22:50;;;;;;;1.90;1.70;;;;;;;;;;5030697;28;20324;-60
2022/10/03 12:25:20;;;;;;;3.80;2.25;;;;;;;;;;5018319;28;20209;-61
2022/10/03 12:27:59;;;;;;;2.00;1.90;;;;;;;;;;5016484;28;20216;-61
2022/10/03 12:30:27;;;;;;;3.85;1.80;;;;;;;;;;5030366;28;20227;-61
2022/10/03 12:33:05;;;;;;;3.30;2.20;;;;;;;;;;5016309;28;20200;-61
2022/10/03 12:35:39;;;;;;;2.42;1.70;;;;;;;;;;5030721;28;20212;-61
2022/10/03 12:38:27;;;;;;;4.97;1.98;;;;;;;;;;5030081;28;20232;-60
2022/10/03 12:41:02;;;;;;;1.80;1.70;;;;;;;;;;5030322;28;20208;-61
2022/10/03 12:43:34;;;;;;;2.90;1.63;;;;;;;;;;5030476;28;20255;-60
2022/10/03 12:46:04;;;;;;;3.30;1.80;;;;;;;;;;5030415;28;20218;-61
2022/10/03 12:48:38;;;;;;;2.17;1.95;;;;;;;;;;5029379;28;20927;-61
2022/10/03 12:51:10;;;;;;;6.05;2.38;;;;;;;;;;5028443;28;20209;-60
2022/10/03 12:53:45;;;;;;;1.88;1.77;;;;;;;;;;5027841;28;20204;-60
2022/10/03 12:56:14;;;;;;;1.65;1.65;;;;;;;;;;5025651;28;20858;-60
2022/10/03 12:58:59;;;;;;;2.13;2.03;;;;;;;;;;5029802;28;20204;-61
2022/10/03 13:01:35;;;;;;;3.65;1.40;;;;;;;;;;5019309;28;20228;-60
2022/10/03 13:04:04;;;;;;;1.98;1.85;;;;;;;;;;5026022;28;20236;-61
2022/10/03 13:06:41;;;;;;;2.17;1.83;;;;;;;;;;5024429;28;20204;-61
2022/10/03 13:09:16;;;;;;;1.55;1.45;;;;;;;;;;5029601;28;20681;-61
2022/10/03 13:11:53;;;;;;;1.77;1.40;;;;;;;;;;5024004;28;20212;-62
2022/10/03 13:14:27;;;;;;;2.10;1.90;;;;;;;;;;5014716;28;20205;-61
2022/10/03 13:16:58;;;;;;;1.73;1.35;;;;;;;;;;5024330;28;20219;-61
2022/10/03 13:19:27;;;;;;;2.10;1.60;;;;;;;;;;5028362;28;20219;-61
2022/10/03 13:22:05;;;;;;;1.83;1.65;;;;;;;;;;5019919;28;20343;-61
2022/10/03 13:24:35;;;;;;;1.52;1.33;;;;;;;;;;5018168;28;20248;-60
2022/10/03 13:27:20;;;;;;;1.90;1.80;;;;;;;;;;5026343;28;20239;-61
2022/10/03 13:29:50;;;;;;;1.58;1.48;;;;;;;;;;5025089;28;20729;-61
2022/10/03 13:32:20;;;;;;;1.88;1.70;;;;;;;;;;5024706;28;20300;-60
2022/10/03 13:34:57;;;;;;;1.40;1.30;;;;;;;;;;5023197;28;20640;-61
2022/10/03 13:37:30;;;;;;;1.80;1.70;;;;;;;;;;5022359;28;20214;-60
2022/10/03 13:40:02;;;;;;;2.08;1.27;;;;;;;;;;5027629;28;20208;-61
2022/10/03 13:42:37;;;;;;;2.45;1.60;;;;;;;;;;5029406;28;20208;-61
2022/10/03 13:45:07;;;;;;;3.13;1.42;;;;;;;;;;5030258;28;20285;-61
2022/10/03 13:47:45;;;;;;;2.15;1.55;;;;;;;;;;5029718;28;20671;-61
2022/10/03 13:50:17;;;;;;;2.92;1.50;;;;;;;;;;5029332;28;20219;-61
2022/10/03 13:52:47;;;;;;;2.72;1.63;;;;;;;;;;5029753;28;20204;-61
2022/10/03 13:55:21;;;;;;;2.05;1.75;;;;;;;;;;5027401;28;20299;-60
2022/10/03 13:57:55;;;;;;;2.00;1.90;;;;;;;;;;5029444;28;20248;-61
2022/10/03 14:00:23;;;;;;;4.68;2.00;;;;;;;;;;5014188;28;20723;-61
2022/10/03 14:03:06;;;;;;;2.20;1.80;;;;;;;;;;5027847;28;20224;-61
2022/10/03 14:05:50;;;;;;;2.55;2.35;;;;;;;;;;5026789;28;20226;-60
2022/10/03 14:08:27;;;;;;;3.00;2.70;;;;;;;;;;5026743;28;20701;-61
2022/10/03 14:11:02;;;;;;;3.72;2.08;;;;;;;;;;5024710;28;20299;-61
2022/10/03 14:13:32;;;;;;;4.30;1.92;;;;;;;;;;5027488;28;20294;-61
2022/10/03 14:16:04;;;;;;;2.15;1.80;;;;;;;;;;5028034;28;20196;-61
2022/10/03 14:18:37;;;;;;;2.08;1.95;;;;;;;;;;5028600;28;20207;-60
2022/10/03 14:21:22;;;;;;;1.60;1.52;;;;;;;;;;5029063;28;20207;-61
2022/10/03 14:23:52;;;;;;;1.90;1.80;;;;;;;;;;5028541;28;20232;-61
2022/10/03 14:26:28;;;;;;;1.95;1.85;;;;;;;;;;5027899;28;20302;-60
2022/10/03 14:29:01;;;;;;;2.15;1.83;;;;;;;;;;5022831;28;20219;-61
2022/10/03 14:31:31;;;;;;;2.22;2.10;;;;;;;;;;5027810;28;20223;-61
2022/10/03 14:34:02;;;;;;;2.38;2.17;;;;;;;;;;5028270;28;20314;-61
2022/10/03 14:36:37;;;;;;;2.70;1.67;;;;;;;;;;5028466;28;20223;-60
2022/10/03 14:39:10;;;;;;;1.70;1.60;;;;;;;;;;5028890;28;20208;-61
2022/10/03 14:41:45;;;;;;;2.40;1.92;;;;;;;;;;5028977;28;20208;-61
2022/10/03 14:44:14;;;;;;;2.20;2.10;;;;;;;;;;5028208;28;20232;-61
2022/10/03 14:46:43;;;;;;;2.75;2.50;;;;;;;;;;5028641;28;20212;-62
2022/10/03 14:49:17;;;;;;;2.00;1.90;;;;;;;;;;5028807;28;20205;-63
2022/10/03 14:51:47;;;;;;;2.17;2.08;;;;;;;;;;5028208;28;20230;-61
2022/10/03 14:54:20;;;;;;;2.20;2.10;;;;;;;;;;5028396;28;20208;-61
2022/10/03 14:56:50;;;;;;;2.83;1.65;;;;;;;;;;5027580;28;20235;-61
2022/10/03 14:59:19;;;;;;;2.72;2.58;;;;;;;;;;5028568;28;20208;-62
2022/10/03 15:01:51;;;;;;;4.00;2.90;;;;;;;;;;5028669;28;20216;-61
2022/10/03 15:04:24;;;;;;;3.80;2.90;;;;;;;;;;5026135;28;20223;-61
2022/10/03 15:06:53;;;;;;;2.50;2.40;;;;;;;;;;5028105;28;20208;-64
2022/10/03 15:09:25;;;;;;;2.10;1.90;;;;;;;;;;5017614;28;20213;-63
2022/10/03 15:11:58;;;;;;;1.73;1.63;;;;;;;;;;5027831;28;20215;-61
2022/10/03 15:14:27;;;;;;;1.95;1.80;;;;;;;;;;5017817;28;20257;-62
2022/10/03 15:16:55;;;;;;;4.07;3.55;;;;;;;;;;5027674;28;20212;-62
2022/10/03 15:19:28;;;;;;;2.50;2.30;;;;;;;;;;5027520;28;20208;-61
2022/10/03 15:21:56;;;;;;;2.55;2.42;;;;;;;;;;5027604;28;20219;-61
2022/10/03 15:24:26;;;;;;;2.30;2.20;;;;;;;;;;5030660;28;20228;-61
2022/10/03 15:26:58;;;;;;;2.33;2.22;;;;;;;;;;5022776;28;20315;-62
2022/10/03 15:29:25;;;;;;;5.78;3.50;;;;;;;;;;5024000;28;20200;-61
2022/10/03 15:31:54;;;;;;;3.15;2.85;;;;;;;;;;5023819;28;20714;-61
2022/10/03 15:34:24;;;;;;;3.22;2.92;;;;;;;;;;5024278;28;20212;-61
2022/10/03 15:36:54;;;;;;;3.10;2.75;;;;;;;;;;5022484;28;20223;-61
2022/10/03 15:39:23;;;;;;;5.80;3.45;;;;;;;;;;5024540;28;21572;-61
2022/10/03 15:41:53;;;;;;;4.97;3.17;;;;;;;;;;5027724;28;20282;-62
2022/10/03 15:44:25;;;;;;;52.38;18.42;;;;;;;;;;5031343;28;20747;-62
2022/10/03 15:46:54;;;;;;;7.97;5.60;;;;;;;;;;5024780;28;20231;-63
2022/10/03 15:49:25;;;;;;;5.80;3.55;;;;;;;;;;5022592;28;20684;-62
2022/10/03 15:51:53;;;;;;;4.45;4.15;;;;;;;;;;5021197;28;20223;-61
2022/10/03 15:54:22;;;;;;;3.40;2.70;;;;;;;;;;5030860;28;20227;-62
2022/10/03 15:56:52;;;;;;;3.35;2.95;;;;;;;;;;5031289;28;20204;-62
2022/10/03 15:59:21;;;;;;;2.88;2.67;;;;;;;;;;5031391;28;20212;-62
2022/10/03 16:01:51;;;;;;;3.50;2.75;;;;;;;;;;5025024;28;20208;-61
2022/10/03 16:04:20;;;;;;;2.55;2.40;;;;;;;;;;5031154;28;20363;-62
2022/10/03 16:06:49;;;;;;;1.92;1.88;;;;;;;;;;5030314;28;20207;-61
2022/10/03 16:09:18;;;;;;;2.30;1.90;;;;;;;;;;5029046;28;20215;-62